Time;durP1;ratioP1;P1;durP2;ratioP2;P2;SDS_P1;SDS_P2;PMS_P1;PMS_P2;Temp;Humidity;BMP_temperature;BMP_pressure;BME280_temperature;BME280_humidity;BME280_pressure;Samples;Min_cycle;Max_cycle;Signal;HPM_P1;HPM_P2
2022/08/22 00:02:28;;;;;;;7.70;5.90;;;;;;;13.40;96.79;100592.19;4980105;28;20050;-74
2022/08/22 00:05:02;;;;;;;7.28;5.63;;;;;;;13.37;96.54;100594.91;4977340;28;20121;-74
2022/08/22 00:07:52;;;;;;;7.80;5.60;;;;;;;13.35;95.94;100596.69;4983307;28;20073;-74
2022/08/22 00:10:25;;;;;;;7.75;5.75;;;;;;;13.20;98.07;100589.81;4968034;28;20464;-74
2022/08/22 00:12:57;;;;;;;9.23;6.07;;;;;;;13.27;97.68;100588.88;4977191;28;20042;-74
2022/08/22 00:15:42;;;;;;;8.38;6.25;;;;;;;13.34;96.92;100587.00;4982774;28;20081;-74
2022/08/22 00:18:19;;;;;;;9.43;6.25;;;;;;;13.39;96.07;100582.50;4979894;28;20041;-74
2022/08/22 00:21:02;;;;;;;7.63;5.80;;;;;;;13.32;96.33;100583.50;4976266;28;20114;-74
2022/08/22 00:23:36;;;;;;;9.60;6.30;;;;;;;13.20;96.97;100588.94;4983163;28;20143;-74
2022/08/22 00:26:30;;;;;;;6.82;5.35;;;;;;;13.18;97.56;100585.44;4978596;28;20078;-74
2022/08/22 00:29:04;;;;;;;8.05;6.00;;;;;;;13.06;98.15;100587.41;4978565;28;20125;-74
2022/08/22 00:31:47;;;;;;;6.15;5.55;;;;;;;13.03;98.62;100584.81;4983380;28;20169;-74
2022/08/22 00:34:21;;;;;;;9.30;5.47;;;;;;;12.95;99.13;100589.34;4981564;28;20393;-74
2022/08/22 00:37:08;;;;;;;8.10;6.40;;;;;;;12.97;100.00;100586.66;4977272;28;20116;-74
2022/08/22 00:39:49;;;;;;;9.73;7.38;;;;;;;13.07;99.33;100590.91;4976617;28;20043;-74
2022/08/22 00:43:02;;;;;;;7.70;6.95;;;;;;;13.07;99.57;100594.47;4980560;28;20034;-74
2022/08/22 00:45:27;;;;;;;11.25;7.15;;;;;;;13.10;97.75;100597.06;4982235;28;20075;-74
2022/08/22 00:48:11;;;;;;;8.35;7.43;;;;;;;13.14;97.20;100600.53;4980533;28;20090;-74
2022/08/22 00:50:53;;;;;;;11.15;6.95;;;;;;;13.19;97.22;100592.50;4976847;28;20034;-74
2022/08/22 00:53:53;;;;;;;8.27;7.43;;;;;;;13.22;96.86;100595.13;4978052;28;20093;-73
2022/08/22 00:57:06;;;;;;;9.05;7.18;;;;;;;13.10;97.62;100594.41;4980248;28;20034;-73
2022/08/22 00:59:52;;;;;;;7.30;6.60;;;;;;;13.00;98.21;100591.94;4946441;28;20075;-73
2022/08/22 01:02:55;;;;;;;7.97;6.50;;;;;;;13.07;97.60;100594.47;4978800;28;20090;-73
2022/08/22 01:05:39;;;;;;;9.27;7.72;;;;;;;13.05;97.38;100595.38;4981699;28;20038;-73
2022/08/22 01:08:14;;;;;;;6.97;6.38;;;;;;;13.01;97.47;100598.97;4978437;28;20055;-72
2022/08/22 01:11:30;;;;;;;6.53;5.60;;;;;;;13.03;97.03;100594.53;4977214;28;20046;-73
2022/08/22 01:14:11;;;;;;;7.30;6.47;;;;;;;13.06;96.51;100605.94;4954191;28;20046;-74
2022/08/22 01:16:54;;;;;;;6.50;5.90;;;;;;;13.06;96.22;100603.28;4981237;28;20035;-73
2022/08/22 01:19:57;;;;;;;7.20;5.95;;;;;;;12.85;98.17;100601.84;4984042;28;20096;-73
2022/08/22 01:22:41;;;;;;;9.73;6.45;;;;;;;12.70;99.79;100602.91;4983694;28;20044;-73
2022/08/22 01:25:48;;;;;;;7.93;7.13;;;;;;;12.71;99.72;100607.34;4986328;28;20042;-73
2022/08/22 01:28:31;;;;;;;8.40;7.10;;;;;;;12.74;99.16;100608.19;4966713;28;20042;-74
2022/08/22 01:31:31;;;;;;;10.90;7.22;;;;;;;12.74;99.27;100611.72;4965059;28;20050;-74
2022/08/22 01:34:20;;;;;;;7.93;6.50;;;;;;;12.76;99.63;100609.94;4984279;28;20247;-74
2022/08/22 01:36:48;;;;;;;9.18;6.57;;;;;;;12.77;99.50;100611.66;4983941;28;20090;-73
2022/08/22 01:39:27;;;;;;;8.82;7.38;;;;;;;12.76;99.94;100614.31;4981027;28;20069;-73
2022/08/22 01:42:20;;;;;;;10.27;7.00;;;;;;;12.78;100.00;100612.53;4984191;28;20042;-73
2022/08/22 01:45:23;;;;;;;13.50;7.78;;;;;;;12.87;99.24;100617.72;4983749;28;20046;-73
2022/08/22 01:47:55;;;;;;;9.93;7.47;;;;;;;12.90;98.07;100615.03;4983186;28;20472;-74
2022/08/22 01:50:29;;;;;;;;;;;;;;;12.96;98.72;100614.06;4983218;28;20039;-74
2022/08/22 01:53:07;;;;;;;8.82;7.93;;;;;;;12.99;98.07;100612.22;4982569;28;19914;-74
2022/08/22 01:56:08;;;;;;;7.50;6.88;;;;;;;12.86;98.05;100626.53;4983093;28;21002;-73
2022/08/22 01:58:42;;;;;;;8.32;6.80;;;;;;;12.73;99.47;100615.25;4969346;28;20049;-73
2022/08/22 02:01:22;;;;;;;7.68;6.85;;;;;;;12.82;99.38;100619.56;4984299;28;20074;-74
2022/08/22 02:04:04;;;;;;;7.90;7.03;;;;;;;12.84;99.24;100613.34;4979604;28;20035;-73
2022/08/22 02:06:54;;;;;;;12.98;7.47;;;;;;;12.87;99.22;100612.44;4985394;28;20038;-73
2022/08/22 02:09:57;;;;;;;15.00;7.68;;;;;;;12.79;100.00;100623.13;4982050;28;20047;-74
2022/08/22 02:12:34;;;;;;;10.45;6.60;;;;;;;12.76;100.00;100623.16;4981156;28;20039;-73
2022/08/22 02:15:12;;;;;;;9.20;6.75;;;;;;;12.73;100.00;100628.47;4981740;28;20046;-73
2022/08/22 02:17:54;;;;;;;7.00;6.30;;;;;;;12.77;100.00;100624.03;4983513;28;20042;-73
2022/08/22 02:20:24;;;;;;;8.35;7.20;;;;;;;12.82;100.00;100619.56;4978679;28;20416;-73
2022/08/22 02:23:00;;;;;;;8.20;6.90;;;;;;;12.93;100.00;100622.91;4982077;28;20053;-73
2022/08/22 02:25:59;;;;;;;14.70;8.02;;;;;;;13.03;100.00;100624.53;4978905;28;20039;-73
2022/08/22 02:28:36;;;;;;;7.30;6.57;;;;;;;13.10;99.95;100622.69;4981311;28;20039;-73
2022/08/22 02:31:11;;;;;;;7.30;6.60;;;;;;;13.14;100.00;100622.59;4978461;28;20043;-73
2022/08/22 02:33:36;;;;;;;9.73;6.43;;;;;;;13.07;100.00;100623.63;4982832;28;20108;-74
2022/08/22 02:36:20;;;;;;;9.00;7.68;;;;;;;13.07;100.00;100625.34;4980845;28;20042;-73
2022/08/22 02:39:01;;;;;;;8.13;7.22;;;;;;;13.05;99.98;100629.84;4982654;28;20413;-73
2022/08/22 02:41:36;;;;;;;6.50;5.90;;;;;;;13.02;99.40;100614.84;4979051;28;20035;-73
2022/08/22 02:44:17;;;;;;;8.27;7.45;;;;;;;13.02;98.59;100620.16;4976988;28;20441;-73
2022/08/22 02:47:10;;;;;;;9.25;7.32;;;;;;;13.07;98.84;100620.97;4980061;28;20057;-74
2022/08/22 02:49:48;;;;;;;7.70;6.90;;;;;;;13.10;98.50;100615.63;4980138;28;20046;-73
2022/08/22 02:52:27;;;;;;;9.38;6.50;;;;;;;13.10;99.11;100625.34;4978392;28;20109;-73
2022/08/22 02:55:05;;;;;;;7.05;6.35;;;;;;;13.09;99.71;100624.44;4982116;28;20039;-73
2022/08/22 02:58:23;;;;;;;8.10;6.47;;;;;;;13.06;100.00;100621.84;4980115;28;20101;-73
2022/08/22 03:01:16;;;;;;;11.68;6.32;;;;;;;13.06;100.00;100619.19;4974631;28;20050;-74
2022/08/22 03:03:45;;;;;;;7.88;6.15;;;;;;;13.07;100.00;100622.72;4979058;28;20042;-74
2022/08/22 03:06:16;;;;;;;7.00;6.30;;;;;;;13.07;100.00;100618.31;4998619;28;20042;-73
2022/08/22 03:09:05;;;;;;;6.63;5.90;;;;;;;13.10;99.12;100620.91;4978162;28;20049;-73
2022/08/22 03:11:37;;;;;;;6.60;5.65;;;;;;;13.13;98.53;100620.84;4977657;28;20353;-74
2022/08/22 03:14:19;;;;;;;7.15;6.43;;;;;;;13.15;97.57;100619.06;4981172;28;20038;-73
2022/08/22 03:16:48;;;;;;;8.63;6.32;;;;;;;13.12;98.43;100612.91;4978318;28;20500;-73
2022/08/22 03:19:23;;;;;;;6.32;5.72;;;;;;;13.09;97.75;100612.97;4982881;28;20041;-73
2022/08/22 03:22:08;;;;;;;6.32;5.68;;;;;;;12.99;98.21;100620.16;4976928;28;20038;-73
2022/08/22 03:24:41;;;;;;;8.65;6.63;;;;;;;12.92;98.88;100618.53;4981444;28;20035;-73
2022/08/22 03:27:13;;;;;;;6.45;5.85;;;;;;;12.92;98.93;100624.69;4979121;28;20043;-73
2022/08/22 03:29:48;;;;;;;6.15;5.55;;;;;;;12.93;98.97;100614.97;4981940;28;20520;-73
2022/08/22 03:32:20;;;;;;;7.28;5.78;;;;;;;12.96;98.78;100611.41;4983668;28;20449;-73
2022/08/22 03:35:07;;;;;;;7.82;6.50;;;;;;;13.03;98.80;100613.94;4983737;28;20037;-73
2022/08/22 03:37:39;;;;;;;7.20;6.43;;;;;;;13.03;99.42;100619.25;4980332;28;20039;-74
2022/08/22 03:40:26;;;;;;;6.78;6.10;;;;;;;13.03;100.00;100613.94;4980507;28;20043;-74
2022/08/22 03:43:13;;;;;;;6.15;5.55;;;;;;;13.05;100.00;100619.22;4982421;28;20056;-73
2022/08/22 03:46:12;;;;;;;8.63;6.30;;;;;;;13.09;100.00;100613.84;4981304;28;20612;-73
2022/08/22 03:48:58;;;;;;;6.97;5.68;;;;;;;13.07;100.00;100610.38;4980471;28;20050;-73
2022/08/22 03:51:27;;;;;;;6.53;5.93;;;;;;;13.02;99.83;100608.66;4980382;28;20045;-73
2022/08/22 03:54:27;;;;;;;9.82;4.85;;;;;;;13.01;99.32;100610.44;4981203;28;20038;-74
2022/08/22 03:57:29;;;;;;;7.05;5.93;;;;;;;12.99;99.51;100620.16;4971231;28;20041;-73
2022/08/22 04:00:03;;;;;;;7.97;6.90;;;;;;;12.97;99.63;100618.44;4982381;28;20516;-74
2022/08/22 04:03:03;;;;;;;7.25;6.55;;;;;;;12.91;100.00;100617.63;4981824;28;20471;-73
2022/08/22 04:06:09;;;;;;;5.53;5.00;;;;;;;12.87;100.00;100612.44;4983012;28;20100;-73
2022/08/22 04:09:10;;;;;;;6.57;5.97;;;;;;;12.88;99.91;100615.03;4977500;28;20042;-73
2022/08/22 04:12:20;;;;;;;5.55;5.05;;;;;;;12.92;99.48;100615.88;4982822;28;20045;-73
2022/08/22 04:15:18;;;;;;;6.45;5.85;;;;;;;12.88;99.38;100614.16;4979394;28;20050;-73
2022/08/22 04:18:28;;;;;;;5.60;4.88;;;;;;;12.87;99.12;100625.66;4983012;28;20035;-73
2022/08/22 04:21:15;;;;;;;6.28;5.78;;;;;;;12.91;99.25;100622.06;4927853;29;20114;-73
2022/08/22 04:23:49;;;;;;;6.85;6.18;;;;;;;12.97;99.51;100619.34;4980474;28;20051;-73
2022/08/22 04:26:41;;;;;;;7.30;6.15;;;;;;;13.02;99.60;100617.50;4980263;28;20046;-73
2022/08/22 04:29:21;;;;;;;7.20;5.90;;;;;;;13.07;99.46;100626.25;4960826;28;20494;-74
2022/08/22 04:31:56;;;;;;;7.07;6.18;;;;;;;13.11;99.44;100625.31;4980420;28;20489;-73
2022/08/22 04:34:35;;;;;;;6.68;6.07;;;;;;;13.07;100.00;100634.22;4978126;28;20035;-73
2022/08/22 04:37:05;;;;;;;5.78;5.28;;;;;;;13.08;100.00;100630.66;4978128;28;20448;-73
2022/08/22 04:39:41;;;;;;;6.63;5.80;;;;;;;13.14;100.00;100637.63;4976672;28;20038;-73
2022/08/22 04:42:18;;;;;;;7.47;6.80;;;;;;;13.19;100.00;100643.72;4979231;28;20100;-74
2022/08/22 04:44:56;;;;;;;8.50;6.70;;;;;;;13.27;100.00;100644.53;4970300;28;20034;-73
2022/08/22 04:47:37;;;;;;;7.45;6.75;;;;;;;13.38;99.96;100647.00;4979246;28;20030;-74
2022/08/22 04:50:20;;;;;;;9.27;6.15;;;;;;;13.47;98.21;100641.56;4969220;28;20094;-74
2022/08/22 04:53:53;;;;;;;7.15;6.55;;;;;;;13.56;98.28;100638.75;4980297;28;20038;-73
2022/08/22 04:56:36;;;;;;;54.22;30.35;;;;;;;13.56;97.84;100640.53;4872373;29;20072;-72
2022/08/22 04:59:11;;;;;;;11.35;10.15;;;;;;;13.61;98.19;100646.63;4931688;29;20063;-72
2022/08/22 05:01:37;;;;;;;9.43;8.25;;;;;;;13.74;96.98;100649.97;4977395;28;20054;-72
2022/08/22 05:04:19;;;;;;;8.00;7.13;;;;;;;13.81;96.33;100648.97;4981886;28;20379;-72
2022/08/22 05:06:51;;;;;;;7.78;7.03;;;;;;;13.90;95.80;100651.44;4980263;28;20121;-73
2022/08/22 05:09:22;;;;;;;12.57;9.47;;;;;;;14.02;95.09;100653.88;4985150;28;20041;-72
2022/08/22 05:11:52;;;;;;;8.43;7.20;;;;;;;14.12;94.33;100656.34;4986316;28;20066;-72
2022/08/22 05:14:29;;;;;;;10.02;7.35;;;;;;;14.22;93.67;100652.59;4980686;28;20039;-72
2022/08/22 05:16:56;;;;;;;10.15;7.53;;;;;;;14.32;92.68;100653.31;4983716;28;20031;-72
2022/08/22 05:19:28;;;;;;;10.60;7.78;;;;;;;14.40;92.52;100662.88;4986492;28;20104;-72
2022/08/22 05:21:55;;;;;;;11.70;10.18;;;;;;;14.46;92.58;100659.22;4983266;28;20073;-72
2022/08/22 05:24:32;;;;;;;10.27;8.45;;;;;;;14.55;92.83;100661.72;4984886;28;20041;-72
2022/08/22 05:27:07;;;;;;;10.63;9.65;;;;;;;14.58;93.32;100656.34;4979861;28;20508;-72
2022/08/22 05:29:33;;;;;;;10.95;9.93;;;;;;;14.60;93.88;100664.31;4975026;28;20043;-72
2022/08/22 05:32:05;;;;;;;11.45;9.75;;;;;;;14.65;93.11;100673.06;4981979;28;20054;-72
2022/08/22 05:34:36;;;;;;;10.45;9.40;;;;;;;14.71;92.65;100675.56;4979958;28;20515;-73
2022/08/22 05:37:07;;;;;;;10.80;9.68;;;;;;;14.74;92.70;100667.53;4984709;28;20041;-72
2022/08/22 05:39:33;;;;;;;10.88;9.23;;;;;;;14.79;93.09;100675.41;4978697;28;20493;-72
2022/08/22 05:42:01;;;;;;;9.60;8.70;;;;;;;14.86;92.18;100679.69;4982285;28;20035;-72
2022/08/22 05:44:37;;;;;;;12.73;11.43;;;;;;;14.82;92.78;100678.88;4985494;28;20041;-72
2022/08/22 05:47:21;;;;;;;14.18;10.15;;;;;;;14.89;93.75;100672.53;4985585;28;20038;-73
2022/08/22 05:50:06;;;;;;;11.38;8.80;;;;;;;15.04;92.75;100684.59;4967017;28;20042;-72
2022/08/22 05:53:01;;;;;;;11.07;9.90;;;;;;;15.15;91.74;100680.84;4981892;28;20189;-72
2022/08/22 05:55:36;;;;;;;15.30;10.05;;;;;;;15.24;90.64;100681.47;4983814;28;20080;-73
2022/08/22 05:58:16;;;;;;;10.90;9.00;;;;;;;15.32;90.30;100686.63;4981486;28;20046;-72
2022/08/22 06:00:46;;;;;;;11.40;9.80;;;;;;;15.45;89.15;100682.75;4983104;28;20045;-72
2022/08/22 06:03:24;;;;;;;11.10;9.63;;;;;;;15.47;88.56;100680.94;4978346;28;20049;-72
2022/08/22 06:05:52;;;;;;;9.60;8.57;;;;;;;15.60;88.62;100681.53;4983286;28;20061;-73
2022/08/22 06:08:30;;;;;;;12.18;9.93;;;;;;;15.75;87.65;100688.31;4985713;28;20045;-72
2022/08/22 06:11:01;;;;;;;11.73;9.20;;;;;;;15.83;87.26;100681.00;4984443;28;20390;-72
2022/08/22 06:13:37;;;;;;;9.95;9.05;;;;;;;15.89;87.18;100686.16;4984845;28;20042;-72
2022/08/22 06:16:09;;;;;;;11.70;9.38;;;;;;;15.99;86.61;100695.66;4980595;28;20046;-72
2022/08/22 06:18:37;;;;;;;11.10;9.27;;;;;;;16.02;86.74;100694.69;4978292;28;20042;-72
2022/08/22 06:21:08;;;;;;;10.05;9.05;;;;;;;16.07;86.74;100698.13;4977100;28;20034;-72
2022/08/22 06:23:41;;;;;;;10.75;8.88;;;;;;;16.16;87.00;100695.19;4981125;28;20520;-73
2022/08/22 06:26:10;;;;;;;10.10;8.95;;;;;;;16.30;86.13;100691.31;4993590;28;20730;-73
2022/08/22 06:28:43;;;;;;;9.82;9.02;;;;;;;16.39;85.48;100693.72;4972901;28;20039;-72
2022/08/22 06:31:18;;;;;;;9.55;8.70;;;;;;;16.49;85.42;100689.88;4978746;28;20030;-72
2022/08/22 06:33:53;;;;;;;11.45;10.25;;;;;;;16.56;85.37;100687.94;4971357;28;20038;-72
2022/08/22 06:36:31;;;;;;;10.00;9.00;;;;;;;16.64;85.39;100685.91;4981927;28;20504;-73
2022/08/22 06:39:06;;;;;;;11.50;9.63;;;;;;;16.72;84.68;100696.34;4978253;28;20114;-72
2022/08/22 06:41:36;;;;;;;11.15;10.05;;;;;;;16.83;83.80;100688.94;4982434;28;20543;-73
2022/08/22 06:44:04;;;;;;;10.13;9.23;;;;;;;16.99;83.10;100689.34;4981049;28;20093;-72
2022/08/22 06:46:35;;;;;;;10.68;9.68;;;;;;;17.17;82.45;100680.78;4983902;28;20138;-73
2022/08/22 06:49:02;;;;;;;11.95;9.63;;;;;;;17.35;81.15;100686.50;4984088;28;20401;-73
2022/08/22 06:51:28;;;;;;;14.05;9.05;;;;;;;17.46;79.77;100687.88;4982690;28;20066;-73
2022/08/22 06:54:00;;;;;;;12.23;9.63;;;;;;;17.62;79.64;100690.06;4985225;28;20034;-73
2022/08/22 06:56:33;;;;;;;11.68;9.50;;;;;;;17.66;78.75;100681.03;4966452;28;20042;-74
2022/08/22 06:59:05;;;;;;;10.05;9.15;;;;;;;17.78;78.48;100688.63;4982780;28;20043;-73
2022/08/22 07:01:34;;;;;;;10.45;9.45;;;;;;;17.88;78.40;100692.75;4980121;28;20049;-72
2022/08/22 07:04:06;;;;;;;10.32;9.40;;;;;;;18.06;77.91;100691.25;4966746;28;20097;-73
2022/08/22 07:06:43;;;;;;;;;;;;;;;18.11;77.56;100693.78;4983054;28;20031;-73
2022/08/22 07:09:29;;;;;;;11.68;10.57;;;;;;;18.18;77.87;100690.84;4994861;28;19983;-72
2022/08/22 07:11:58;;;;;;;16.10;9.98;;;;;;;18.31;77.03;100688.63;4978650;28;20460;-73
2022/08/22 07:14:27;;;;;;;10.80;9.70;;;;;;;18.45;77.26;100692.59;4981205;28;20101;-72
2022/08/22 07:16:56;;;;;;;12.20;10.95;;;;;;;18.58;75.16;100700.09;4981512;28;20085;-73
2022/08/22 07:19:31;;;;;;;18.80;10.48;;;;;;;18.73;76.35;100693.31;4983435;28;20046;-73
2022/08/22 07:21:58;;;;;;;13.77;11.93;;;;;;;18.96;76.24;100691.59;4986611;28;20038;-72
2022/08/22 07:24:30;;;;;;;11.52;10.18;;;;;;;19.17;75.59;100690.75;4983329;28;20038;-73
2022/08/22 07:27:24;;;;;;;24.23;14.98;;;;;;;19.35;73.45;100693.66;4977619;28;20074;-72
2022/08/22 07:30:05;;;;;;;12.82;11.52;;;;;;;19.56;72.80;100692.78;4978981;28;20118;-72
2022/08/22 07:32:51;;;;;;;14.60;12.43;;;;;;;19.53;73.48;100690.22;4980691;28;20035;-73
2022/08/22 07:35:41;;;;;;;13.27;11.90;;;;;;;19.57;73.89;100691.84;4980962;28;20041;-73
2022/08/22 07:38:24;;;;;;;15.07;11.70;;;;;;;19.88;73.22;100691.47;4980291;28;20133;-73
2022/08/22 07:41:14;;;;;;;16.75;15.05;;;;;;;20.14;71.55;100701.06;4981700;28;20060;-73
2022/08/22 07:43:47;;;;;;;16.33;13.05;;;;;;;20.43;72.03;100698.91;4980277;28;20042;-73
2022/08/22 07:46:32;;;;;;;10.30;9.35;;;;;;;20.55;70.22;100697.56;4979354;28;20046;-73
2022/08/22 07:49:10;;;;;;;11.77;10.68;;;;;;;20.73;70.86;100696.72;4980746;28;20050;-73
2022/08/22 07:52:09;;;;;;;13.55;12.25;;;;;;;20.85;69.47;100699.78;4981695;28;20038;-73
2022/08/22 07:54:40;;;;;;;14.68;11.73;;;;;;;21.03;69.85;100698.91;4983451;28;20042;-73
2022/08/22 07:57:16;;;;;;;13.25;11.95;;;;;;;21.22;68.51;100694.44;4981530;28;20504;-73
2022/08/22 07:59:46;;;;;;;12.15;10.63;;;;;;;21.35;67.26;100692.03;4981041;28;20125;-72
2022/08/22 08:02:14;;;;;;;11.90;10.02;;;;;;;21.49;67.88;100698.56;4975917;28;20039;-73
2022/08/22 08:04:41;;;;;;;11.05;10.00;;;;;;;21.59;67.23;100687.31;4976832;28;20447;-72
2022/08/22 08:07:10;;;;;;;10.52;9.18;;;;;;;21.70;65.72;100689.44;4976850;28;20034;-72
2022/08/22 08:09:40;;;;;;;9.40;8.48;;;;;;;21.75;64.80;100692.78;4959483;28;20039;-73
2022/08/22 08:12:09;;;;;;;9.85;8.80;;;;;;;21.75;64.05;100691.91;4976692;28;20050;-72
2022/08/22 08:14:38;;;;;;;9.32;8.52;;;;;;;21.83;64.13;100684.34;4983396;28;20154;-72
2022/08/22 08:17:13;;;;;;;10.25;9.35;;;;;;;22.05;63.84;100689.47;4982666;28;20042;-73
2022/08/22 08:19:40;;;;;;;9.40;8.57;;;;;;;22.31;63.44;100680.94;4977640;28;20093;-73
2022/08/22 08:22:06;;;;;;;8.10;7.45;;;;;;;22.52;62.38;100695.09;4982021;28;20136;-72
2022/08/22 08:24:36;;;;;;;7.93;6.57;;;;;;;22.54;61.90;100693.19;4974331;28;20058;-73
2022/08/22 08:30:03;;;;;;;9.90;9.10;;;;;;;22.98;60.60;100689.06;4984628;28;20077;-72
2022/08/22 08:32:35;;;;;;;7.70;7.00;;;;;;;23.16;60.17;100689.84;4983674;28;20039;-72
2022/08/22 08:35:19;;;;;;;10.27;9.40;;;;;;;23.33;59.10;100680.84;4984422;28;20042;-72
2022/08/22 08:37:52;;;;;;;8.93;7.28;;;;;;;23.50;58.52;100688.81;4985273;28;20034;-73
2022/08/22 08:40:30;;;;;;;7.95;7.15;;;;;;;23.62;56.84;100688.09;4980934;28;20050;-73
2022/08/22 08:43:28;;;;;;;6.93;6.22;;;;;;;23.65;56.89;100686.19;4984636;28;20046;-73
2022/08/22 08:46:18;;;;;;;8.95;8.30;;;;;;;23.79;55.91;100683.59;4971064;28;20046;-73
2022/08/22 08:48:57;;;;;;;9.02;8.27;;;;;;;23.69;53.62;100683.22;4983864;28;20038;-73
2022/08/22 08:51:55;;;;;;;7.75;6.78;;;;;;;23.75;54.39;100682.03;4986171;28;20034;-73
2022/08/22 08:54:44;;;;;;;7.63;6.90;;;;;;;23.73;53.57;100674.03;4967042;28;20038;-73
2022/08/22 08:57:49;;;;;;;8.40;7.15;;;;;;;23.58;52.72;100678.47;4983723;28;20165;-73
2022/08/22 09:00:31;;;;;;;9.00;7.68;;;;;;;23.51;52.08;100677.09;4967291;28;20110;-72
2022/08/22 09:02:57;;;;;;;;;;;;;;;23.53;52.01;100675.19;4980698;28;20115;-73
2022/08/22 09:05:44;;;;;;;11.07;7.97;;;;;;;23.72;51.84;100672.31;4985153;28;20340;-73
2022/08/22 09:08:38;;;;;;;8.52;7.88;;;;;;;23.61;52.53;100672.91;4981985;28;20042;-72
2022/08/22 09:11:37;;;;;;;7.75;7.10;;;;;;;23.76;53.10;100672.97;4984556;28;20030;-72
2022/08/22 09:14:20;;;;;;;7.18;6.47;;;;;;;24.00;51.92;100681.47;4982606;28;20181;-73
2022/08/22 09:16:58;;;;;;;7.68;7.07;;;;;;;24.00;51.76;100676.94;4984499;28;20053;-73
2022/08/22 09:19:43;;;;;;;7.03;6.35;;;;;;;24.24;51.45;100673.72;4980901;28;20039;-73
2022/08/22 09:22:34;;;;;;;7.05;6.45;;;;;;;24.22;48.04;100671.09;4979572;28;20125;-72
2022/08/22 09:25:20;;;;;;;10.43;7.35;;;;;;;24.26;47.48;100677.16;4973479;28;20106;-73
2022/08/22 09:28:01;;;;;;;7.18;6.47;;;;;;;24.14;47.55;100683.31;4983156;28;20133;-73
2022/08/22 09:31:07;;;;;;;7.93;6.75;;;;;;;24.22;48.58;100679.19;4983998;28;20039;-72
2022/08/22 09:33:45;;;;;;;7.70;6.97;;;;;;;24.36;49.09;100674.78;4952312;28;20448;-73
2022/08/22 09:36:24;;;;;;;9.85;7.13;;;;;;;24.33;49.29;100683.94;4982442;28;20544;-73
2022/08/22 09:38:58;;;;;;;11.45;6.43;;;;;;;24.60;49.20;100670.63;4983096;28;20493;-73
2022/08/22 09:41:39;;;;;;;7.65;6.80;;;;;;;24.93;47.73;100674.81;4981705;28;20049;-73
2022/08/22 09:44:46;;;;;;;10.35;7.57;;;;;;;25.26;47.08;100661.03;4976855;28;20493;-72
2022/08/22 09:47:24;;;;;;;10.70;7.80;;;;;;;25.56;46.83;100666.22;4980508;28;20046;-72
2022/08/22 09:50:14;;;;;;;6.70;6.10;;;;;;;25.38;46.03;100669.28;4981806;28;20512;-73
2022/08/22 09:53:05;;;;;;;6.72;6.10;;;;;;;25.27;44.98;100665.44;4966980;28;20034;-73
2022/08/22 09:55:33;;;;;;;11.02;9.93;;;;;;;25.27;46.39;100659.19;4982095;28;20053;-72
2022/08/22 09:58:05;;;;;;;8.82;7.65;;;;;;;25.57;44.87;100661.66;4982764;28;20050;-73
2022/08/22 10:00:30;;;;;;;7.85;7.10;;;;;;;25.46;43.47;100665.09;4983593;28;20097;-73
2022/08/22 10:03:07;;;;;;;8.77;6.55;;;;;;;25.44;43.66;100667.06;4979462;28;20137;-73
2022/08/22 10:05:51;;;;;;;7.13;6.57;;;;;;;25.57;43.63;100661.66;4979332;28;20038;-73
2022/08/22 10:08:40;;;;;;;10.05;8.07;;;;;;;25.84;43.77;100655.41;4979565;28;20621;-72
2022/08/22 10:11:21;;;;;;;8.75;7.95;;;;;;;25.89;42.69;100661.41;4972579;28;20046;-72
2022/08/22 10:13:55;;;;;;;8.57;7.78;;;;;;;25.94;42.68;100659.25;4981928;28;20500;-71
2022/08/22 10:16:33;;;;;;;7.55;6.80;;;;;;;25.99;42.16;100662.47;4980482;28;20031;-73
2022/08/22 10:19:12;;;;;;;6.50;6.00;;;;;;;25.48;42.30;100667.69;4980164;28;20045;-72
2022/08/22 10:21:55;;;;;;;7.82;6.97;;;;;;;25.23;43.64;100661.22;4980427;28;20042;-72
2022/08/22 10:24:48;;;;;;;8.45;7.72;;;;;;;25.52;43.24;100663.84;4972011;28;20031;-72
2022/08/22 10:27:36;;;;;;;8.00;7.28;;;;;;;25.88;42.96;100665.91;4978992;28;20043;-72
2022/08/22 10:30:18;;;;;;;9.02;8.18;;;;;;;26.09;41.93;100668.97;4976903;28;20057;-72
2022/08/22 10:32:53;;;;;;;6.47;5.80;;;;;;;26.21;41.99;100673.56;4973040;28;20117;-73
2022/08/22 10:35:27;;;;;;;11.98;11.07;;;;;;;26.19;41.21;100675.50;4980239;28;20027;-72
2022/08/22 10:38:02;;;;;;;11.50;10.52;;;;;;;26.29;41.16;100678.44;4976712;28;20041;-72
2022/08/22 10:40:50;;;;;;;11.52;10.73;;;;;;;25.97;41.49;100675.25;4972036;28;20073;-72
2022/08/22 10:43:41;;;;;;;9.55;8.10;;;;;;;25.59;42.01;100675.97;4981628;28;20051;-73
2022/08/22 10:46:14;;;;;;;9.48;8.52;;;;;;;25.74;42.01;100679.47;4965238;28;20421;-73
2022/08/22 10:48:58;;;;;;;10.75;9.90;;;;;;;26.13;40.60;100681.34;4980980;28;20038;-72
2022/08/22 10:51:50;;;;;;;11.30;10.27;;;;;;;26.55;39.81;100668.53;4983559;28;20100;-72
2022/08/22 10:54:52;;;;;;;15.15;14.15;;;;;;;26.34;39.84;100673.56;4978285;28;20418;-72
2022/08/22 10:57:25;;;;;;;20.63;19.30;;;;;;;25.64;39.49;100671.09;4980249;28;20035;-72
2022/08/22 11:00:32;;;;;;;12.52;11.45;;;;;;;25.94;40.07;100675.47;4981801;28;20067;-72
2022/08/22 11:03:28;;;;;;;13.05;12.15;;;;;;;26.26;39.82;100673.25;4980159;28;20062;-72
2022/08/22 11:05:59;;;;;;;13.93;13.13;;;;;;;26.32;39.14;100670.09;4982155;28;20042;-72
2022/08/22 11:08:53;;;;;;;14.32;13.15;;;;;;;26.69;39.27;100666.66;4981310;28;20047;-72
2022/08/22 11:11:36;;;;;;;13.38;12.43;;;;;;;26.94;38.80;100666.63;4969001;28;20085;-72
2022/08/22 11:14:12;;;;;;;20.75;19.42;;;;;;;26.41;38.86;100666.75;4981293;28;20053;-72
2022/08/22 11:16:57;;;;;;;20.83;19.38;;;;;;;26.40;37.92;100664.16;4981575;28;20408;-72
2022/08/22 11:19:34;;;;;;;14.35;13.02;;;;;;;26.62;38.46;100672.53;4979530;28;20042;-72
2022/08/22 11:22:23;;;;;;;14.05;13.13;;;;;;;27.20;38.03;100666.63;4980900;28;20042;-73
2022/08/22 11:25:16;;;;;;;13.57;12.57;;;;;;;27.11;36.44;100674.38;4981106;28;20035;-71
2022/08/22 11:28:13;;;;;;;14.70;12.05;;;;;;;27.25;36.69;100675.28;4984521;28;20046;-72
2022/08/22 11:30:54;;;;;;;14.63;13.65;;;;;;;26.79;38.02;100673.16;4961281;28;20035;-72
2022/08/22 11:33:37;;;;;;;13.48;12.48;;;;;;;26.92;37.70;100674.00;4982325;28;20059;-72
2022/08/22 11:36:37;;;;;;;13.98;12.98;;;;;;;27.16;37.97;100671.34;4960836;28;20130;-72
2022/08/22 11:39:21;;;;;;;14.27;13.30;;;;;;;27.40;37.43;100663.25;4941350;28;20725;-72
2022/08/22 11:42:12;;;;;;;15.82;14.38;;;;;;;27.71;36.26;100675.38;4979993;28;20034;-72
2022/08/22 11:44:45;;;;;;;14.33;13.27;;;;;;;27.79;35.85;100673.94;4983987;28;20117;-72
2022/08/22 11:47:15;;;;;;;19.85;18.60;;;;;;;27.13;35.34;100674.28;4982034;28;20297;-72
2022/08/22 11:50:09;;;;;;;18.90;17.38;;;;;;;26.97;35.56;100668.25;4981311;28;20038;-72
2022/08/22 11:53:02;;;;;;;14.77;13.90;;;;;;;26.88;36.49;100667.06;4977515;28;20062;-72
2022/08/22 11:55:40;;;;;;;12.77;11.82;;;;;;;26.93;35.99;100664.88;4983454;28;20185;-72
2022/08/22 11:58:27;;;;;;;16.75;15.45;;;;;;;26.36;37.27;100668.94;4982605;28;20042;-72
2022/08/22 12:01:20;;;;;;;15.75;14.82;;;;;;;26.32;37.42;100658.41;4972027;28;20575;-72
2022/08/22 12:04:10;;;;;;;28.00;26.40;;;;;;;25.92;38.48;100670.16;4977841;28;20042;-72
2022/08/22 12:06:44;;;;;;;14.60;13.52;;;;;;;26.01;38.29;100668.66;4979092;28;20121;-72
2022/08/22 12:09:30;;;;;;;17.88;16.80;;;;;;;26.20;38.33;100665.56;4974169;28;20054;-72
2022/08/22 12:12:09;;;;;;;20.88;19.55;;;;;;;25.98;38.46;100668.88;4975355;28;20057;-71
2022/08/22 12:14:45;;;;;;;12.40;11.50;;;;;;;26.19;38.69;100667.38;4980768;28;20117;-72
2022/08/22 12:17:37;;;;;;;14.88;13.95;;;;;;;26.35;37.78;100664.47;4977497;28;20366;-72
2022/08/22 12:20:37;;;;;;;14.13;13.23;;;;;;;26.45;37.18;100659.28;4979887;28;20125;-72
2022/08/22 12:23:30;;;;;;;12.45;11.55;;;;;;;26.64;36.35;100659.72;4981045;28;20085;-71
2022/08/22 12:26:05;;;;;;;15.65;14.55;;;;;;;26.83;37.05;100650.31;4969531;28;20063;-72
2022/08/22 12:28:49;;;;;;;13.07;12.25;;;;;;;26.71;37.48;100648.47;4976077;28;20031;-72